createdAt,value
2023-03-18T00:00:13.108Z,3.85
2023-03-18T00:02:40.403Z,3.90
2023-03-18T00:05:08.433Z,4.57
2023-03-18T00:07:36.285Z,4.30
2023-03-18T00:10:04.299Z,4.38
2023-03-18T00:12:32.416Z,4.03
2023-03-18T00:14:59.673Z,4.18
2023-03-18T00:17:26.077Z,4.20
2023-03-18T00:19:52.458Z,3.50
2023-03-18T00:22:19.352Z,3.80
2023-03-18T00:24:46.406Z,4.32
2023-03-18T00:27:12.851Z,3.97
2023-03-18T00:29:39.966Z,4.10
2023-03-18T00:32:06.729Z,3.63
2023-03-18T00:34:33.522Z,3.70
2023-03-18T00:37:00.291Z,3.67
2023-03-18T00:39:28.910Z,3.63
2023-03-18T00:41:56.670Z,3.85
2023-03-18T00:44:26.453Z,3.88
2023-03-18T00:46:53.091Z,3.70
2023-03-18T00:49:19.887Z,3.53
2023-03-18T00:51:46.737Z,3.30
2023-03-18T00:54:16.250Z,3.63
2023-03-18T00:56:43.083Z,3.90
2023-03-18T00:59:09.503Z,3.35
2023-03-18T01:01:36.633Z,4.18
2023-03-18T01:04:04.335Z,4.28
2023-03-18T01:06:33.822Z,3.97
2023-03-18T01:09:01.445Z,4.00
2023-03-18T01:11:28.983Z,3.67
2023-03-18T01:13:55.529Z,3.70
2023-03-18T01:16:22.446Z,3.30
2023-03-18T01:18:48.918Z,4.18
2023-03-18T01:21:15.505Z,3.35
2023-03-18T01:23:42.276Z,3.83
2023-03-18T01:26:09.784Z,3.53
2023-03-18T01:28:36.705Z,4.30
2023-03-18T01:31:03.135Z,4.57
2023-03-18T01:33:30.129Z,5.50
2023-03-18T01:36:00.584Z,4.97
2023-03-18T01:38:31.160Z,5.32
2023-03-18T01:40:58.698Z,5.40
2023-03-18T01:43:29.666Z,5.68
2023-03-18T01:46:00.556Z,6.40
2023-03-18T01:48:29.741Z,5.65
2023-03-18T01:51:07.370Z,6.20
2023-03-18T01:53:42.742Z,5.80
2023-03-18T01:56:09.228Z,5.15
2023-03-18T01:58:57.515Z,5.28
2023-03-18T02:01:34.879Z,4.75
2023-03-18T02:04:04.451Z,5.78
2023-03-18T02:06:31.937Z,6.55
2023-03-18T02:08:58.931Z,6.32
2023-03-18T02:13:57.635Z,5.90
2023-03-18T02:16:30.635Z,6.43
2023-03-18T02:19:21.243Z,6.43
2023-03-18T02:22:06.645Z,6.72
2023-03-18T02:24:55.648Z,6.85
2023-03-18T02:27:31.202Z,6.88
2023-03-18T02:30:01.816Z,6.57
2023-03-18T02:32:33.419Z,6.90
2023-03-18T02:35:04.021Z,7.00
2023-03-18T02:37:33.315Z,7.60
2023-03-18T02:40:18.857Z,6.38
2023-03-18T02:42:46.842Z,6.68
2023-03-18T02:45:37.256Z,6.75
2023-03-18T02:48:06.688Z,6.22
2023-03-18T02:50:34.381Z,8.57
2023-03-18T02:53:03.898Z,7.95
2023-03-18T02:55:30.444Z,7.78
2023-03-18T02:57:57.269Z,8.10
2023-03-18T03:00:24.097Z,7.75
2023-03-18T03:02:53.515Z,8.80
2023-03-18T03:05:20.814Z,7.90
2023-03-18T03:07:47.619Z,8.43
2023-03-18T03:10:16.459Z,8.18
2023-03-18T03:12:46.171Z,8.40
2023-03-18T03:15:14.964Z,8.07
2023-03-18T03:17:42.072Z,8.40
2023-03-18T03:20:13.745Z,8.82
2023-03-18T03:22:45.594Z,7.43
2023-03-18T03:25:15.512Z,9.23
2023-03-18T03:27:42.189Z,8.80
2023-03-18T03:30:11.054Z,8.55
2023-03-18T03:32:37.614Z,8.90
2023-03-18T03:35:05.359Z,9.38
2023-03-18T03:37:31.938Z,9.20
2023-03-18T03:39:59.976Z,8.15
2023-03-18T03:42:26.644Z,10.02
2023-03-18T03:44:53.235Z,9.98
2023-03-18T03:47:21.276Z,10.18
2023-03-18T03:49:47.856Z,10.63
2023-03-18T03:52:14.479Z,11.02
2023-03-18T03:54:41.944Z,10.05
2023-03-18T03:57:09.067Z,10.13
2023-03-18T03:59:35.670Z,11.05
2023-03-18T04:02:02.252Z,10.13
2023-03-18T04:04:29.259Z,9.93
2023-03-18T04:06:56.228Z,9.07
2023-03-18T04:09:24.476Z,8.90
2023-03-18T04:11:51.090Z,10.48
2023-03-18T04:14:17.785Z,9.80
2023-03-18T04:16:44.963Z,9.80
2023-03-18T04:19:11.415Z,9.40
2023-03-18T04:21:38.877Z,9.73
2023-03-18T04:24:06.703Z,8.98
2023-03-18T04:26:35.735Z,9.55
2023-03-18T04:29:03.856Z,9.73
2023-03-18T04:31:31.967Z,8.68
2023-03-18T04:34:00.114Z,9.32
2023-03-18T04:36:28.523Z,8.07
2023-03-18T04:38:55.473Z,8.75
2023-03-18T04:41:24.892Z,8.18
2023-03-18T04:43:51.447Z,7.28
2023-03-18T04:46:18.122Z,8.57
2023-03-18T04:48:44.807Z,9.43
2023-03-18T04:51:12.624Z,8.20
2023-03-18T04:53:39.625Z,8.98
2023-03-18T04:56:07.234Z,7.70
2023-03-18T04:58:33.869Z,9.43
2023-03-18T05:01:00.714Z,9.13
2023-03-18T05:03:27.172Z,8.98
2023-03-18T05:05:53.583Z,9.57
2023-03-18T05:08:23.022Z,9.35
2023-03-18T05:10:50.963Z,8.35
2023-03-18T05:13:17.719Z,9.05
2023-03-18T05:15:44.242Z,8.50
2023-03-18T05:18:10.716Z,8.60
2023-03-18T05:20:37.154Z,8.73
2023-03-18T05:23:06.393Z,9.88
2023-03-18T05:25:37.650Z,8.50
2023-03-18T05:28:07.983Z,9.50
2023-03-18T05:30:40.323Z,9.10
2023-03-18T05:33:06.890Z,8.73
2023-03-18T05:35:33.914Z,7.93
2023-03-18T05:38:01.054Z,8.35
2023-03-18T05:40:30.597Z,7.47
2023-03-18T05:42:57.450Z,8.10
2023-03-18T05:45:24.438Z,6.82
2023-03-18T05:47:51.828Z,7.93
2023-03-18T05:50:31.028Z,8.82
2023-03-18T05:52:57.397Z,9.07
2023-03-18T05:55:23.810Z,8.10
2023-03-18T05:57:50.231Z,8.25
2023-03-18T06:00:18.658Z,7.97
2023-03-18T06:02:46.327Z,7.70
2023-03-18T06:05:13.079Z,8.10
2023-03-18T06:07:40.649Z,8.68
2023-03-18T06:10:07.863Z,9.05
2023-03-18T06:12:34.468Z,8.90
2023-03-18T06:15:01.038Z,8.50
2023-03-18T06:17:27.538Z,7.90
2023-03-18T06:19:54.373Z,9.35
2023-03-18T06:22:20.835Z,10.32
2023-03-18T06:24:48.378Z,7.53
2023-03-18T06:27:15.454Z,8.82
2023-03-18T06:29:41.840Z,8.57
2023-03-18T06:32:08.232Z,8.30
2023-03-18T06:34:36.190Z,9.68
2023-03-18T06:37:03.319Z,8.73
2023-03-18T06:39:29.883Z,8.55
2023-03-18T06:41:56.628Z,7.72
2023-03-18T06:44:23.238Z,7.82
2023-03-18T06:46:49.644Z,7.43
2023-03-18T06:49:16.605Z,6.75
2023-03-18T06:51:43.757Z,7.85
2023-03-18T06:54:10.295Z,7.22
2023-03-18T06:56:41.640Z,7.35
2023-03-18T06:59:12.919Z,6.55
2023-03-18T07:01:39.555Z,6.35
2023-03-18T07:04:06.949Z,6.75
2023-03-18T07:06:33.760Z,8.38
2023-03-18T07:09:01.233Z,7.97
2023-03-18T07:11:28.129Z,8.13
2023-03-18T07:13:57.576Z,8.38
2023-03-18T07:16:24.042Z,8.20
2023-03-18T07:18:50.425Z,8.23
2023-03-18T07:21:17.744Z,7.90
2023-03-18T07:23:44.625Z,9.00
2023-03-18T07:26:12.377Z,8.75
2023-03-18T07:28:38.905Z,9.65
2023-03-18T07:31:05.297Z,12.27
2023-03-18T07:33:33.132Z,11.25
2023-03-18T07:35:59.546Z,10.38
2023-03-18T07:38:25.995Z,9.50
2023-03-18T07:40:52.438Z,10.57
2023-03-18T07:43:18.849Z,9.93
2023-03-18T07:45:45.268Z,9.02
2023-03-18T07:48:12.592Z,7.65
2023-03-18T07:50:39.062Z,8.25
2023-03-18T07:53:05.561Z,8.25
2023-03-18T07:55:32.912Z,8.43
2023-03-18T07:57:59.623Z,8.02
2023-03-18T08:00:26.193Z,7.85
2023-03-18T08:02:52.835Z,8.13
2023-03-18T08:05:19.854Z,8.50
2023-03-18T08:07:46.384Z,8.45
2023-03-18T08:10:14.619Z,9.25
2023-03-18T08:12:52.633Z,8.40
2023-03-18T08:15:21.876Z,8.38
2023-03-18T08:17:48.364Z,8.77
2023-03-18T08:20:15.371Z,8.63
2023-03-18T08:22:41.911Z,8.02
2023-03-18T08:25:08.929Z,8.45
2023-03-18T08:27:35.424Z,8.23
2023-03-18T08:30:03.825Z,8.18
2023-03-18T08:32:30.671Z,8.65
2023-03-18T08:34:57.744Z,8.50
2023-03-18T08:37:24.710Z,8.02
2023-03-18T08:39:51.153Z,7.65
2023-03-18T08:42:17.559Z,8.43
2023-03-18T08:44:43.946Z,8.77
2023-03-18T08:47:10.412Z,7.78
2023-03-18T08:49:37.097Z,8.20
2023-03-18T08:52:04.288Z,7.95
2023-03-18T08:54:30.991Z,7.47
2023-03-18T08:56:59.141Z,7.30
2023-03-18T08:59:25.724Z,6.38
2023-03-18T09:01:53.198Z,6.10
2023-03-18T09:04:20.190Z,6.28
2023-03-18T09:06:48.709Z,6.10
2023-03-18T09:09:15.505Z,6.15
2023-03-18T09:11:41.876Z,4.78
2023-03-18T09:14:08.310Z,4.82
2023-03-18T09:16:35.740Z,4.45
2023-03-18T09:19:02.196Z,3.92
2023-03-18T09:21:28.553Z,3.80
2023-03-18T09:23:54.888Z,4.40
2023-03-18T09:26:21.938Z,4.22
2023-03-18T09:28:48.305Z,3.92
2023-03-18T09:31:15.430Z,3.92
2023-03-18T09:33:42.630Z,3.90
2023-03-18T09:36:09.909Z,3.45
2023-03-18T09:38:36.483Z,3.13
2023-03-18T09:41:33.338Z,3.65
2023-03-18T09:44:04.130Z,3.97
2023-03-18T09:47:09.590Z,3.85
2023-03-18T09:49:42.607Z,3.35
2023-03-18T09:52:30.986Z,3.13
2023-03-18T09:55:02.794Z,3.42
2023-03-18T09:57:35.781Z,4.03
2023-03-18T10:00:25.902Z,3.75
2023-03-18T10:03:00.152Z,3.95
2023-03-18T10:08:02.540Z,3.47
2023-03-18T10:10:37.621Z,3.92
2023-03-18T10:13:10.135Z,4.10
2023-03-18T10:15:41.785Z,3.90
2023-03-18T10:18:18.920Z,4.22
2023-03-18T10:21:21.336Z,4.05
2023-03-18T10:24:02.912Z,3.45
2023-03-18T10:26:42.017Z,3.50
2023-03-18T10:29:40.504Z,3.95
2023-03-18T10:32:46.896Z,3.78
2023-03-18T10:35:26.988Z,4.15
2023-03-18T10:38:06.951Z,3.67
2023-03-18T10:40:39.634Z,3.97
2023-03-18T10:43:13.222Z,3.45
2023-03-18T10:45:40.160Z,3.70
2023-03-18T10:48:20.273Z,3.75
2023-03-18T10:51:09.875Z,3.83
2023-03-18T10:53:45.280Z,3.95
2023-03-18T10:56:13.187Z,3.75
2023-03-18T10:58:41.149Z,4.32
2023-03-18T11:01:09.908Z,4.25
2023-03-18T11:03:50.480Z,3.30
2023-03-18T11:06:41.531Z,3.85
2023-03-18T11:09:23.449Z,3.78
2023-03-18T11:11:50.884Z,3.40
2023-03-18T11:14:22.332Z,3.55
2023-03-18T11:16:50.263Z,3.28
2023-03-18T11:19:29.455Z,2.90
2023-03-18T11:22:28.770Z,3.33
2023-03-18T11:25:17.852Z,3.55
2023-03-18T11:28:11.817Z,3.40
2023-03-18T11:30:48.349Z,2.78
2023-03-18T11:33:17.254Z,2.88
2023-03-18T11:35:50.083Z,2.70
2023-03-18T11:38:19.366Z,2.50
2023-03-18T11:40:46.309Z,3.10
2023-03-18T11:43:17.253Z,2.67
2023-03-18T11:45:46.122Z,3.00
2023-03-18T11:48:36.837Z,2.47
2023-03-18T11:51:12.257Z,3.10
2023-03-18T11:53:38.517Z,2.60
2023-03-18T11:56:17.009Z,3.17
2023-03-18T11:58:58.332Z,2.33
2023-03-18T12:01:42.371Z,2.53
2023-03-18T12:04:13.607Z,2.38
2023-03-18T12:06:59.424Z,2.85
2023-03-18T12:09:36.908Z,2.70
2023-03-18T12:12:12.314Z,2.50
2023-03-18T12:15:06.599Z,2.65
2023-03-18T12:17:43.334Z,2.20
2023-03-18T12:20:45.508Z,2.70
2023-03-18T12:23:27.006Z,2.30
2023-03-18T12:26:01.011Z,2.58
2023-03-18T12:28:42.685Z,2.38
2023-03-18T12:31:40.600Z,2.65
2023-03-18T12:34:35.077Z,2.25
2023-03-18T12:37:32.352Z,2.50
2023-03-18T12:40:17.880Z,2.83
2023-03-18T12:43:17.388Z,2.50
2023-03-18T12:45:46.177Z,1.80
2023-03-18T12:48:16.421Z,1.90
2023-03-18T12:50:47.599Z,2.47
2023-03-18T12:53:33.596Z,1.90
2023-03-18T12:56:13.215Z,2.10
2023-03-18T12:58:52.662Z,2.17
2023-03-18T13:01:28.000Z,2.47
2023-03-18T13:03:58.672Z,2.80
2023-03-18T13:06:31.666Z,2.28
2023-03-18T13:09:16.457Z,2.10
2023-03-18T13:11:54.812Z,2.42
2023-03-18T13:15:02.403Z,2.13
2023-03-18T13:17:36.071Z,2.55
2023-03-18T13:20:12.087Z,2.10
2023-03-18T13:22:46.021Z,2.17
2023-03-18T13:25:21.558Z,1.83
2023-03-18T13:28:29.053Z,2.33
2023-03-18T13:31:16.678Z,2.40
2023-03-18T13:33:54.957Z,2.17
2023-03-18T13:36:45.323Z,1.80
2023-03-18T13:39:31.554Z,2.05
2023-03-18T13:42:10.595Z,2.05
2023-03-18T13:44:47.907Z,2.33
2023-03-18T13:47:19.837Z,2.28
2023-03-18T13:49:46.678Z,2.45
2023-03-18T13:52:35.701Z,2.58
2023-03-18T13:55:12.146Z,2.38
2023-03-18T13:57:57.121Z,2.25
2023-03-18T14:00:25.968Z,2.00
2023-03-18T14:03:17.588Z,2.08
2023-03-18T14:05:46.136Z,1.80
2023-03-18T14:08:44.022Z,2.30
2023-03-18T14:11:28.629Z,2.05
2023-03-18T14:14:00.402Z,1.90
2023-03-18T14:16:37.699Z,1.83
2023-03-18T14:19:14.136Z,2.38
2023-03-18T14:22:07.280Z,2.10
2023-03-18T14:24:34.025Z,1.92
2023-03-18T14:27:03.388Z,2.10
2023-03-18T14:29:39.332Z,1.92
2023-03-18T14:32:26.924Z,1.95
2023-03-18T14:35:00.688Z,1.98
2023-03-18T14:37:59.433Z,2.00
2023-03-18T14:40:26.368Z,1.80
2023-03-18T14:42:59.414Z,2.45
2023-03-18T14:45:34.720Z,1.80
2023-03-18T14:48:17.490Z,1.95
2023-03-18T14:50:53.964Z,2.08
2023-03-18T14:53:38.406Z,2.28
2023-03-18T14:56:04.967Z,2.55
2023-03-18T14:58:33.600Z,2.60
2023-03-18T15:01:04.922Z,2.38
2023-03-18T15:03:32.278Z,2.42
2023-03-18T15:06:03.335Z,2.63
2023-03-18T15:08:47.465Z,2.17
2023-03-18T15:11:16.236Z,2.22
2023-03-18T15:13:42.601Z,2.10
2023-03-18T15:16:12.029Z,2.15
2023-03-18T15:18:39.760Z,2.20
2023-03-18T15:21:15.584Z,2.60
2023-03-18T15:23:49.682Z,2.10
2023-03-18T15:26:20.013Z,2.17
2023-03-18T15:28:50.165Z,2.85
2023-03-18T15:31:29.769Z,2.30
2023-03-18T15:34:08.006Z,2.42
2023-03-18T15:36:54.679Z,2.80
2023-03-18T15:39:36.923Z,2.50
2023-03-18T15:42:15.454Z,2.53
2023-03-18T15:44:43.235Z,2.67
2023-03-18T15:47:16.885Z,2.58
2023-03-18T15:49:54.974Z,2.35
2023-03-18T15:52:41.717Z,2.65
2023-03-18T15:55:28.021Z,2.35
2023-03-18T15:57:55.041Z,2.40
2023-03-18T16:00:22.166Z,2.85
2023-03-18T16:02:50.302Z,2.35
2023-03-18T16:05:22.679Z,2.35
2023-03-18T16:07:52.414Z,2.58
2023-03-18T16:10:20.364Z,2.50
2023-03-18T16:12:47.523Z,2.30
2023-03-18T16:15:20.312Z,2.70
2023-03-18T16:17:48.582Z,2.50
2023-03-18T16:20:27.461Z,2.85
2023-03-18T16:22:53.938Z,2.17
2023-03-18T16:25:20.725Z,2.25
2023-03-18T16:27:48.812Z,2.22
2023-03-18T16:30:27.385Z,2.80
2023-03-18T16:32:55.059Z,3.17
2023-03-18T16:35:27.152Z,2.08
2023-03-18T16:37:53.567Z,2.63
2023-03-18T16:40:25.740Z,2.30
2023-03-18T16:42:52.990Z,2.38
2023-03-18T16:45:30.889Z,2.40
2023-03-18T16:48:02.459Z,2.60
2023-03-18T16:50:37.568Z,2.30
2023-03-18T16:53:17.426Z,2.20
2023-03-18T16:55:45.628Z,2.33
2023-03-18T16:58:15.750Z,2.38
2023-03-18T17:00:46.726Z,2.50
2023-03-18T17:03:13.969Z,2.33
2023-03-18T17:05:40.802Z,2.72
2023-03-18T17:08:07.174Z,2.60
2023-03-18T17:10:34.101Z,2.60
2023-03-18T17:13:05.805Z,2.55
2023-03-18T17:15:36.770Z,3.30
2023-03-18T17:18:04.545Z,2.90
2023-03-18T17:20:33.804Z,2.72
2023-03-18T17:23:00.802Z,2.85
2023-03-18T17:25:28.629Z,3.22
2023-03-18T17:28:01.182Z,2.28
2023-03-18T17:30:39.930Z,2.00
2023-03-18T17:33:19.730Z,2.45
2023-03-18T17:35:46.570Z,1.88
2023-03-18T17:38:15.697Z,2.40
2023-03-18T17:40:42.998Z,2.00
2023-03-18T17:43:18.771Z,2.13
2023-03-18T17:45:45.314Z,1.77
2023-03-18T17:48:20.422Z,2.10
2023-03-18T17:51:16.965Z,2.35
2023-03-18T17:53:48.353Z,2.05
2023-03-18T17:56:16.782Z,2.35
2023-03-18T17:58:45.601Z,2.25
2023-03-18T18:01:26.514Z,1.95
2023-03-18T18:03:54.149Z,2.05
2023-03-18T18:06:23.157Z,2.40
2023-03-18T18:08:50.057Z,2.20
2023-03-18T18:11:21.648Z,3.00
2023-03-18T18:13:48.958Z,2.55
2023-03-18T18:16:15.494Z,2.70
2023-03-18T18:18:42.075Z,3.08
2023-03-18T18:21:19.918Z,3.00
2023-03-18T18:23:46.568Z,2.83
2023-03-18T18:26:15.329Z,2.55
2023-03-18T18:28:44.737Z,2.80
2023-03-18T18:31:12.793Z,2.92
2023-03-18T18:33:41.777Z,3.15
2023-03-18T18:36:09.018Z,2.60
2023-03-18T18:38:35.740Z,2.28
2023-03-18T18:41:02.123Z,2.90
2023-03-18T18:43:28.546Z,2.55
2023-03-18T18:45:55.944Z,2.63
2023-03-18T18:48:34.107Z,2.40
2023-03-18T18:51:01.924Z,4.22
2023-03-18T18:53:40.868Z,3.83
2023-03-18T18:56:36.867Z,4.05
2023-03-18T18:59:15.301Z,4.55
2023-03-18T19:01:41.669Z,4.20
2023-03-18T19:04:14.582Z,5.65
2023-03-18T19:06:41.638Z,4.63
2023-03-18T19:09:18.844Z,4.15
2023-03-18T19:11:46.484Z,3.70
2023-03-18T19:14:27.258Z,4.05
2023-03-18T19:16:57.289Z,3.38
2023-03-18T19:19:26.288Z,4.88
2023-03-18T19:21:52.643Z,4.35
2023-03-18T19:24:29.235Z,4.50
2023-03-18T19:26:57.614Z,4.40
2023-03-18T19:29:24.649Z,4.25
2023-03-18T19:31:51.096Z,4.30
2023-03-18T19:34:18.927Z,3.63
2023-03-18T19:36:50.017Z,3.63
2023-03-18T19:39:18.358Z,3.40
2023-03-18T19:41:45.585Z,3.08
2023-03-18T19:44:16.777Z,2.47
2023-03-18T19:46:43.883Z,3.25
2023-03-18T19:49:23.765Z,2.78
2023-03-18T19:51:51.005Z,2.65
2023-03-18T19:54:33.882Z,3.50
2023-03-18T19:57:05.716Z,3.13
2023-03-18T19:59:38.662Z,3.10
2023-03-18T20:02:18.737Z,3.20
2023-03-18T20:04:45.454Z,2.75
2023-03-18T20:07:14.399Z,2.72
2023-03-18T20:09:40.733Z,3.38
2023-03-18T20:12:19.093Z,3.65
2023-03-18T20:14:45.435Z,3.22
2023-03-18T20:17:25.531Z,4.07
2023-03-18T20:19:51.847Z,3.72
2023-03-18T20:22:48.087Z,3.83
2023-03-18T20:25:20.141Z,3.67
2023-03-18T20:27:48.057Z,3.10
2023-03-18T20:30:23.072Z,3.50
2023-03-18T20:32:49.511Z,3.10
2023-03-18T20:35:16.948Z,2.80
2023-03-18T20:37:43.545Z,3.45
2023-03-18T20:40:40.977Z,2.50
2023-03-18T20:43:13.007Z,2.80
2023-03-18T20:45:39.549Z,2.55
2023-03-18T20:48:06.590Z,3.25
2023-03-18T20:50:33.216Z,3.40
2023-03-18T20:52:59.652Z,3.08
2023-03-18T20:55:31.119Z,3.08
2023-03-18T20:57:58.305Z,2.55
2023-03-18T21:00:27.576Z,3.28
2023-03-18T21:02:56.231Z,2.70
2023-03-18T21:05:22.589Z,2.55
2023-03-18T21:07:49.277Z,2.72
2023-03-18T21:10:18.362Z,5.03
2023-03-18T21:12:45.445Z,3.70
2023-03-18T21:15:21.402Z,3.38
2023-03-18T21:17:48.939Z,3.05
2023-03-18T21:20:22.413Z,3.20
2023-03-18T21:22:50.365Z,3.40
2023-03-18T21:25:23.062Z,3.35
2023-03-18T21:27:49.778Z,3.78
2023-03-18T21:30:17.892Z,4.07
2023-03-18T21:32:45.088Z,4.57
2023-03-18T21:35:17.427Z,4.68
2023-03-18T21:37:43.760Z,4.20
2023-03-18T21:40:21.826Z,3.72
2023-03-18T21:42:49.962Z,2.97
2023-03-18T21:45:18.893Z,3.63
2023-03-18T21:47:45.997Z,3.30
2023-03-18T21:50:20.473Z,2.70
2023-03-18T21:52:47.738Z,2.60
2023-03-18T21:55:14.575Z,3.00
2023-03-18T21:57:40.932Z,3.20
2023-03-18T22:00:08.339Z,3.10
2023-03-18T22:02:36.519Z,3.10
2023-03-18T22:05:12.623Z,3.03
2023-03-18T22:07:40.848Z,3.15
2023-03-18T22:10:07.876Z,3.78
2023-03-18T22:12:34.580Z,3.80
2023-03-18T22:15:01.079Z,4.07
2023-03-18T22:17:33.896Z,3.58
2023-03-18T22:20:01.660Z,3.28
2023-03-18T22:22:36.678Z,3.03
2023-03-18T22:25:03.775Z,2.95
2023-03-18T22:27:30.908Z,2.97
2023-03-18T22:29:58.965Z,2.60
2023-03-18T22:32:46.034Z,2.97
2023-03-18T22:35:18.749Z,3.42
2023-03-18T22:37:45.628Z,3.40
2023-03-18T22:40:26.542Z,3.90
2023-03-18T22:42:55.533Z,3.58
2023-03-18T22:45:33.375Z,3.40
2023-03-18T22:48:03.715Z,3.05
2023-03-18T22:50:31.849Z,3.25
2023-03-18T22:53:00.922Z,3.22
2023-03-18T22:55:28.861Z,3.67
2023-03-18T22:57:55.265Z,3.90
2023-03-18T23:00:32.853Z,3.85
2023-03-18T23:02:59.434Z,3.45
2023-03-18T23:05:26.316Z,3.55
2023-03-18T23:07:53.191Z,3.63
2023-03-18T23:10:20.142Z,3.70
2023-03-18T23:12:47.485Z,3.03
2023-03-18T23:15:19.744Z,3.42
2023-03-18T23:17:46.436Z,3.38
2023-03-18T23:20:15.881Z,2.90
2023-03-18T23:22:42.856Z,2.78
2023-03-18T23:25:14.456Z,2.90
2023-03-18T23:27:40.894Z,2.55
2023-03-18T23:30:08.201Z,2.67
2023-03-18T23:32:35.264Z,2.63
2023-03-18T23:35:01.816Z,2.67
2023-03-18T23:37:28.132Z,2.55
2023-03-18T23:39:54.484Z,3.10
2023-03-18T23:42:21.220Z,2.38
2023-03-18T23:44:47.628Z,2.80
2023-03-18T23:47:14.711Z,2.70
2023-03-18T23:49:41.257Z,2.78
2023-03-18T23:52:13.584Z,2.33
2023-03-18T23:54:40.752Z,2.33
2023-03-18T23:57:08.753Z,2.40
2023-03-18T23:59:36.567Z,2.50
